Time;durP1;ratioP1;P1;durP2;ratioP2;P2;SDS_P1;SDS_P2;PMS_P1;PMS_P2;Temp;Humidity;BMP_temperature;BMP_pressure;BME280_temperature;BME280_humidity;BME280_pressure;Samples;Min_cycle;Max_cycle;Signal;HPM_P1;HPM_P2
2022/09/05 00:00:21;;;;;;;8.50;6.10;;;14.30;99.90;;;;;;5033432;28;20092;-67
2022/09/05 00:03:08;;;;;;;9.15;6.78;;;14.30;99.90;;;;;;5034671;28;20052;-67
2022/09/05 00:05:51;;;;;;;9.40;6.88;;;14.30;99.90;;;;;;5034756;28;20029;-68
2022/09/05 00:08:32;;;;;;;6.65;6.05;;;14.30;99.90;;;;;;5034763;28;20079;-67
2022/09/05 00:11:15;;;;;;;8.32;6.10;;;14.20;99.90;;;;;;5034574;28;20024;-67
2022/09/05 00:13:47;;;;;;;6.70;5.97;;;14.20;99.90;;;;;;5033919;28;20120;-67
2022/09/05 00:16:29;;;;;;;7.07;6.07;;;14.20;99.90;;;;;;5034193;28;20040;-67
2022/09/05 00:19:24;;;;;;;6.47;5.85;;;14.20;99.90;;;;;;5049723;28;20028;-67
2022/09/05 00:22:19;;;;;;;8.18;5.80;;;14.20;99.90;;;;;;5034359;28;20026;-67
2022/09/05 00:25:11;;;;;;;7.55;6.03;;;14.10;99.90;;;;;;5014820;28;20073;-67
2022/09/05 00:27:42;;;;;;;9.05;6.22;;;14.10;99.90;;;;;;5023025;28;20038;-68
2022/09/05 00:30:16;;;;;;;5.88;5.28;;;14.10;99.90;;;;;;5034191;28;20147;-67
2022/09/05 00:33:06;;;;;;;8.70;5.93;;;14.10;99.90;;;;;;5049332;28;20033;-67
2022/09/05 00:35:47;;;;;;;9.95;6.72;;;14.00;99.90;;;;;;5033958;28;20515;-67
2022/09/05 00:38:16;;;;;;;7.93;6.25;;;14.00;99.90;;;;;;5034098;28;20025;-67
2022/09/05 00:40:47;;;;;;;7.28;6.45;;;13.90;99.90;;;;;;5034021;28;20603;-67
2022/09/05 00:43:21;;;;;;;6.85;5.82;;;13.90;99.90;;;;;;5033052;28;20091;-67
2022/09/05 00:46:01;;;;;;;6.85;6.18;;;13.90;99.90;;;;;;5033786;28;20029;-67
2022/09/05 00:48:33;;;;;;;7.82;6.00;;;13.80;99.90;;;;;;5033869;28;20025;-67
2022/09/05 00:51:08;;;;;;;7.30;6.40;;;13.80;99.90;;;;;;5033910;28;20025;-68
2022/09/05 00:53:36;;;;;;;9.35;6.32;;;13.80;99.90;;;;;;5033997;28;20040;-67
2022/09/05 00:56:02;;;;;;;7.18;6.22;;;13.80;99.90;;;;;;5034085;28;20040;-67
2022/09/05 00:58:53;;;;;;;8.88;6.38;;;13.70;99.90;;;;;;5033792;28;20025;-67
2022/09/05 01:01:23;;;;;;;6.95;6.10;;;13.70;99.90;;;;;;5033868;28;20466;-67
2022/09/05 01:04:15;;;;;;;7.47;6.05;;;13.70;99.90;;;;;;5032411;28;20056;-67
2022/09/05 01:06:56;;;;;;;7.05;5.93;;;13.70;99.90;;;;;;5032446;28;20025;-68
2022/09/05 01:09:39;;;;;;;9.32;6.38;;;13.70;99.90;;;;;;5034116;28;20045;-68
2022/09/05 01:12:30;;;;;;;9.57;6.25;;;13.70;99.90;;;;;;5032668;28;20079;-67
2022/09/05 01:15:13;;;;;;;6.55;5.95;;;13.70;99.90;;;;;;5032361;28;20032;-67
2022/09/05 01:17:51;;;;;;;8.07;6.35;;;13.60;99.90;;;;;;5033559;28;20031;-67
2022/09/05 01:20:49;;;;;;;9.25;7.38;;;13.60;99.90;;;;;;5032632;28;20079;-67
2022/09/05 01:23:45;;;;;;;7.20;5.77;;;13.60;99.90;;;;;;5033604;28;20064;-67
2022/09/05 01:26:10;;;;;;;6.70;6.10;;;13.60;99.90;;;;;;5035737;28;20029;-68
2022/09/05 01:28:56;;;;;;;6.57;5.97;;;13.60;99.90;;;;;;5038567;28;20032;-68
2022/09/05 01:31:55;;;;;;;8.20;6.82;;;13.50;99.90;;;;;;5038653;28;20116;-67
2022/09/05 01:34:40;;;;;;;6.65;5.75;;;13.50;99.90;;;;;;5038959;28;20037;-67
2022/09/05 01:37:13;;;;;;;8.32;6.38;;;13.50;99.90;;;;;;5069626;28;20022;-68
2022/09/05 01:39:57;;;;;;;7.63;6.18;;;13.50;99.90;;;;;;5037645;28;20053;-67
2022/09/05 01:42:40;;;;;;;9.25;6.80;;;13.50;99.90;;;;;;5036754;28;20385;-67
2022/09/05 01:45:24;;;;;;;7.43;6.60;;;13.40;99.90;;;;;;5052647;28;20057;-67
2022/09/05 01:48:04;;;;;;;7.28;6.18;;;13.40;99.90;;;;;;5037156;28;20021;-67
2022/09/05 01:50:55;;;;;;;6.70;6.10;;;13.40;99.90;;;;;;5037187;28;20034;-67
2022/09/05 01:53:31;;;;;;;6.72;6.07;;;13.40;99.90;;;;;;5037385;28;20109;-67
2022/09/05 01:56:13;;;;;;;7.95;6.90;;;13.40;99.90;;;;;;5036743;28;20393;-67
2022/09/05 01:58:53;;;;;;;10.93;7.00;;;13.30;99.90;;;;;;5052368;28;20458;-67
2022/09/05 02:01:22;;;;;;;8.93;6.93;;;13.30;99.90;;;;;;5035672;28;20029;-67
2022/09/05 02:04:04;;;;;;;7.00;5.83;;;13.30;99.90;;;;;;5036777;28;20077;-67
2022/09/05 02:06:47;;;;;;;9.13;7.30;;;13.30;99.90;;;;;;5036842;28;20021;-67
2022/09/05 02:09:44;;;;;;;7.38;6.68;;;13.20;99.90;;;;;;5052265;28;20034;-67
2022/09/05 02:12:32;;;;;;;8.55;6.47;;;13.20;99.90;;;;;;5035563;28;20030;-67
2022/09/05 02:15:02;;;;;;;7.53;6.75;;;13.20;99.90;;;;;;5052175;28;20037;-67
2022/09/05 02:17:40;;;;;;;10.13;6.80;;;13.20;99.90;;;;;;5036660;28;20465;-67
2022/09/05 02:20:19;;;;;;;8.40;6.47;;;13.20;99.90;;;;;;5036568;28;20408;-67
2022/09/05 02:22:59;;;;;;;8.82;6.90;;;13.20;99.90;;;;;;5036564;28;20033;-67
2022/09/05 02:25:48;;;;;;;9.88;6.70;;;13.10;99.90;;;;;;5035533;28;20037;-67
2022/09/05 02:28:28;;;;;;;7.93;6.78;;;13.10;99.90;;;;;;5036365;28;20392;-67
2022/09/05 02:31:04;;;;;;;7.25;6.22;;;13.10;99.90;;;;;;5051777;28;20030;-68
2022/09/05 02:33:44;;;;;;;10.63;6.63;;;13.10;99.90;;;;;;5036187;28;20026;-67
2022/09/05 02:36:28;;;;;;;7.07;6.38;;;13.10;99.90;;;;;;5036360;28;20556;-67
2022/09/05 02:39:02;;;;;;;10.15;6.13;;;13.10;99.90;;;;;;5035827;28;20379;-67
2022/09/05 02:41:33;;;;;;;10.68;6.45;;;13.10;99.90;;;;;;5035931;28;20351;-67
2022/09/05 02:44:10;;;;;;;7.32;6.63;;;13.00;99.90;;;;;;5036248;28;20029;-67
2022/09/05 02:46:51;;;;;;;9.45;6.70;;;13.00;99.90;;;;;;5035956;28;20033;-67
2022/09/05 02:49:27;;;;;;;8.32;7.35;;;13.00;99.90;;;;;;5068293;28;20025;-67
2022/09/05 02:52:07;;;;;;;8.70;6.20;;;13.00;99.90;;;;;;5035868;28;20025;-67
2022/09/05 02:54:39;;;;;;;8.75;6.07;;;13.00;99.90;;;;;;5036112;28;20056;-67
2022/09/05 02:57:23;;;;;;;10.40;7.05;;;12.90;99.90;;;;;;5036330;28;20040;-68
2022/09/05 03:00:02;;;;;;;9.32;6.82;;;12.90;99.90;;;;;;5034580;28;20485;-67
2022/09/05 03:02:36;;;;;;;8.98;6.57;;;12.90;99.90;;;;;;5035597;28;20072;-67
2022/09/05 03:05:20;;;;;;;8.25;6.40;;;12.90;99.90;;;;;;5034452;28;20048;-68
2022/09/05 03:08:04;;;;;;;7.50;6.80;;;12.80;99.90;;;;;;5036305;28;20064;-68
2022/09/05 03:11:07;;;;;;;6.80;6.20;;;12.80;99.90;;;;;;5035910;28;20029;-67
2022/09/05 03:13:35;;;;;;;9.40;6.53;;;12.80;99.90;;;;;;5034370;28;20437;-67
2022/09/05 03:16:34;;;;;;;7.40;6.70;;;12.80;99.90;;;;;;5035560;28;20034;-67
2022/09/05 03:19:33;;;;;;;8.55;6.55;;;12.80;99.90;;;;;;5035521;28;20500;-67
2022/09/05 03:22:17;;;;;;;9.98;7.50;;;12.80;99.90;;;;;;5034630;28;20029;-67
2022/09/05 03:25:20;;;;;;;10.02;7.47;;;12.80;99.90;;;;;;5034567;28;20044;-67
2022/09/05 03:28:05;;;;;;;7.85;7.07;;;12.80;99.90;;;;;;5033999;28;20025;-67
2022/09/05 03:31:09;;;;;;;8.10;7.30;;;12.80;99.90;;;;;;5034099;28;20056;-67
2022/09/05 03:34:40;;;;;;;10.13;7.75;;;12.70;99.90;;;;;;5035203;28;20032;-67
2022/09/05 03:37:53;;;;;;;8.35;7.03;;;12.70;99.90;;;;;;5013230;28;20482;-67
2022/09/05 03:40:38;;;;;;;13.35;8.23;;;12.70;99.90;;;;;;5034792;28;20025;-67
2022/09/05 03:43:29;;;;;;;8.63;7.75;;;12.70;99.90;;;;;;5035200;28;20083;-67
2022/09/05 03:46:08;;;;;;;12.15;8.75;;;12.70;99.90;;;;;;5034793;28;20481;-67
2022/09/05 03:48:58;;;;;;;10.50;7.05;;;12.70;99.90;;;;;;5032789;28;20025;-67
2022/09/05 03:51:39;;;;;;;13.48;7.72;;;12.70;99.90;;;;;;5035136;28;20045;-67
2022/09/05 03:54:20;;;;;;;12.27;8.25;;;12.70;99.90;;;;;;5034801;28;20034;-67
2022/09/05 03:56:54;;;;;;;9.38;7.93;;;12.70;99.90;;;;;;5034700;28;20025;-67
2022/09/05 03:59:32;;;;;;;9.55;7.40;;;12.70;99.90;;;;;;5034691;28;20025;-67
2022/09/05 04:02:05;;;;;;;14.23;8.05;;;12.70;99.90;;;;;;5034512;28;20036;-68
2022/09/05 04:04:36;;;;;;;9.75;7.93;;;12.70;99.90;;;;;;5034632;28;20074;-67
2022/09/05 04:07:05;;;;;;;7.97;6.85;;;12.70;99.90;;;;;;5034514;28;20033;-67
2022/09/05 04:10:06;;;;;;;9.20;8.23;;;12.70;99.90;;;;;;5034710;28;20160;-68
2022/09/05 04:12:46;;;;;;;9.00;6.93;;;12.70;99.90;;;;;;5028155;28;20447;-67
2022/09/05 04:15:34;;;;;;;7.40;6.55;;;12.60;99.90;;;;;;5034449;28;20083;-67
2022/09/05 04:18:31;;;;;;;11.63;8.20;;;12.60;99.90;;;;;;5033194;28;20040;-67
2022/09/05 04:21:19;;;;;;;10.40;7.28;;;12.60;99.90;;;;;;5033054;28;20457;-67
2022/09/05 04:24:02;;;;;;;9.65;7.40;;;12.60;99.90;;;;;;5034245;28;20035;-67
2022/09/05 04:27:06;;;;;;;9.07;7.35;;;12.60;99.90;;;;;;5034231;28;20461;-67
2022/09/05 04:30:03;;;;;;;10.57;7.18;;;12.60;99.90;;;;;;5034161;28;20428;-67
2022/09/05 04:32:53;;;;;;;10.55;7.78;;;12.60;99.90;;;;;;5033015;28;20033;-67
2022/09/05 04:35:38;;;;;;;8.98;8.00;;;12.60;99.90;;;;;;5033585;28;20122;-67
2022/09/05 04:38:09;;;;;;;10.77;7.45;;;12.60;99.90;;;;;;5032913;28;20021;-66
2022/09/05 04:40:59;;;;;;;11.05;7.45;;;12.60;99.90;;;;;;5034399;28;20029;-64
2022/09/05 04:43:35;;;;;;;9.43;8.05;;;12.70;99.90;;;;;;5033547;28;20078;-64
2022/09/05 04:46:09;;;;;;;11.35;9.05;;;12.70;99.90;;;;;;5034254;28;20113;-63
2022/09/05 04:48:46;;;;;;;10.38;8.65;;;12.70;99.90;;;;;;5032411;28;20437;-63
2022/09/05 04:51:51;;;;;;;9.10;8.20;;;12.70;99.90;;;;;;5033989;28;20413;-63
2022/09/05 04:54:52;;;;;;;8.93;7.57;;;12.70;99.90;;;;;;5033285;28;20075;-66
2022/09/05 04:57:35;;;;;;;8.60;7.55;;;12.80;99.90;;;;;;5024824;28;20044;-66
2022/09/05 05:00:05;;;;;;;9.60;7.63;;;12.80;99.90;;;;;;5033367;28;20029;-69
2022/09/05 05:02:53;;;;;;;10.75;8.20;;;12.80;99.90;;;;;;5047945;28;20052;-67
2022/09/05 05:05:25;;;;;;;13.10;8.00;;;12.90;99.90;;;;;;5041995;28;20469;-65
2022/09/05 05:07:59;;;;;;;9.50;7.10;;;12.90;99.90;;;;;;5053658;28;20029;-65
2022/09/05 05:10:45;;;;;;;10.60;6.88;;;13.00;99.90;;;;;;5052337;28;20083;-65
2022/09/05 05:13:28;;;;;;;13.93;8.05;;;13.00;99.90;;;;;;5051839;28;20021;-65
2022/09/05 05:16:02;;;;;;;10.60;6.93;;;13.00;99.90;;;;;;5053592;28;20025;-65
2022/09/05 05:18:31;;;;;;;9.18;6.82;;;13.10;99.90;;;;;;5053198;28;20029;-64
2022/09/05 05:21:08;;;;;;;9.20;6.70;;;13.20;99.90;;;;;;5053032;28;20496;-64
2022/09/05 05:23:40;;;;;;;7.35;6.43;;;13.20;99.90;;;;;;5053027;28;20473;-63
2022/09/05 05:26:19;;;;;;;8.45;6.32;;;13.30;99.90;;;;;;5053106;28;20362;-64
2022/09/05 05:29:07;;;;;;;7.25;5.75;;;13.40;99.90;;;;;;5053410;28;20032;-64
2022/09/05 05:31:36;;;;;;;7.78;6.50;;;13.60;99.90;;;;;;5051972;28;20033;-64
2022/09/05 05:34:13;;;;;;;9.15;5.78;;;13.70;99.90;;;;;;5052992;28;20428;-64
2022/09/05 05:36:46;;;;;;;6.63;5.60;;;13.90;99.90;;;;;;5051894;28;20033;-65
2022/09/05 05:39:19;;;;;;;7.30;5.55;;;14.00;99.90;;;;;;5052907;28;20469;-66
2022/09/05 05:41:56;;;;;;;6.85;6.18;;;14.20;99.90;;;;;;5053243;28;20017;-66
2022/09/05 05:44:32;;;;;;;6.35;5.55;;;14.40;99.90;;;;;;5053277;28;20163;-66
2022/09/05 05:47:00;;;;;;;8.23;5.90;;;14.60;99.90;;;;;;5052102;28;20435;-66
2022/09/05 05:49:53;;;;;;;8.30;5.32;;;14.80;99.90;;;;;;5053044;28;20032;-66
2022/09/05 05:52:42;;;;;;;9.75;5.05;;;15.00;99.90;;;;;;5052834;28;20155;-66
2022/09/05 05:55:45;;;;;;;9.52;4.95;;;15.30;99.90;;;;;;5052628;28;20032;-66
2022/09/05 05:58:29;;;;;;;8.40;4.80;;;15.50;99.90;;;;;;5053245;28;20029;-66
2022/09/05 06:00:54;;;;;;;6.30;4.50;;;15.80;99.90;;;;;;5053118;28;20099;-66
2022/09/05 06:03:35;;;;;;;10.43;4.32;;;16.10;99.90;;;;;;5052695;28;20080;-67
2022/09/05 06:06:16;;;;;;;9.45;4.25;;;16.50;99.90;;;;;;5051651;28;20299;-60
2022/09/05 06:09:09;;;;;;;12.65;4.72;;;16.80;99.90;;;;;;5053010;28;20033;-60
2022/09/05 06:11:38;;;;;;;9.98;5.03;;;17.20;99.90;;;;;;5052902;28;20021;-60
2022/09/05 06:14:10;;;;;;;8.60;5.03;;;17.60;99.90;;;;;;5056678;28;20415;-60
2022/09/05 06:16:58;;;;;;;9.85;5.50;;;18.10;99.90;;;;;;5056563;28;20021;-60
2022/09/05 06:20:01;;;;;;;13.68;6.78;;;18.50;99.90;;;;;;5056501;28;20021;-61
2022/09/05 06:22:54;;;;;;;11.77;9.95;;;18.90;99.90;;;;;;5056209;28;20036;-66
2022/09/05 06:25:53;;;;;;;12.90;9.65;;;19.30;99.90;;;;;;5056247;28;20139;-67
2022/09/05 06:28:24;;;;;;;14.10;9.73;;;19.80;99.90;;;;;;5056362;28;20025;-67
2022/09/05 06:31:17;;;;;;;12.55;11.10;;;19.90;99.90;;;;;;5055338;28;20025;-67
2022/09/05 06:34:35;;;;;;;10.63;9.52;;;20.40;99.90;;;;;;5027123;28;20056;-67
2022/09/05 06:37:16;;;;;;;13.68;9.15;;;20.80;99.90;;;;;;4998556;28;20125;-67
2022/09/05 06:39:56;;;;;;;10.65;9.55;;;21.00;99.90;;;;;;5007457;28;20033;-71
2022/09/05 06:43:12;;;;;;;10.38;9.15;;;21.20;99.90;;;;;;5038265;28;20047;-68
2022/09/05 06:45:52;;;;;;;12.88;9.05;;;21.30;99.90;;;;;;5061999;28;20024;-65
2022/09/05 06:48:30;;;;;;;11.98;9.60;;;21.40;99.90;;;;;;5059785;28;20036;-71
2022/09/05 06:50:56;;;;;;;15.88;9.18;;;21.40;99.90;;;;;;5058566;28;20037;-65
2022/09/05 06:53:37;;;;;;;10.80;8.50;;;21.50;99.90;;;;;;5056946;28;20039;-65
2022/09/05 06:56:37;;;;;;;11.98;10.07;;;21.70;99.90;;;;;;5056264;28;20037;-65
2022/09/05 06:59:28;;;;;;;12.63;9.48;;;21.70;99.90;;;;;;5054877;28;20122;-66
2022/09/05 07:02:06;;;;;;;15.93;9.25;;;21.90;99.90;;;;;;5054720;28;20431;-66
2022/09/05 07:05:18;;;;;;;12.18;9.13;;;22.20;99.90;;;;;;5055703;28;20049;-66
2022/09/05 07:07:59;;;;;;;12.52;9.35;;;22.30;99.90;;;;;;5013245;28;20116;-66
2022/09/05 07:10:53;;;;;;;13.05;10.18;;;22.50;99.90;;;;;;5054493;28;20090;-66
2022/09/05 07:13:47;;;;;;;12.63;9.63;;;22.50;99.90;;;;;;5055405;28;20032;-66
2022/09/05 07:16:26;;;;;;;12.45;9.88;;;22.80;99.90;;;;;;5054980;28;20068;-66
2022/09/05 07:19:11;;;;;;;13.20;8.82;;;23.10;99.90;;;;;;5055414;28;20029;-68
2022/09/05 07:21:44;;;;;;;13.48;8.48;;;23.20;99.90;;;;;;5054030;28;20488;-66
2022/09/05 07:24:23;;;;;;;12.10;8.02;;;23.00;99.90;;;;;;5055614;28;20484;-65
2022/09/05 07:26:50;;;;;;;12.02;9.02;;;22.90;99.90;;;;;;5055371;28;20036;-65
2022/09/05 07:29:26;;;;;;;9.65;8.10;;;22.90;99.90;;;;;;5055152;28;20055;-66
2022/09/05 07:31:53;;;;;;;10.38;9.05;;;23.40;99.90;;;;;;5054941;28;20032;-67
2022/09/05 07:34:25;;;;;;;11.73;7.97;;;23.80;99.90;;;;;;5053683;28;20032;-68
2022/09/05 07:36:55;;;;;;;8.73;7.53;;;24.10;99.90;;;;;;5054217;28;20032;-69
2022/09/05 07:39:25;;;;;;;9.10;7.90;;;24.40;99.90;;;;;;5055107;28;20029;-69
2022/09/05 07:41:57;;;;;;;9.25;8.05;;;24.80;99.90;;;;;;5054914;28;20060;-66
2022/09/05 07:44:26;;;;;;;13.27;8.00;;;24.70;99.90;;;;;;5055004;28;20036;-69
2022/09/05 07:47:00;;;;;;;;;;;24.70;99.90;;;;;;5053903;28;20029;-68
2022/09/05 07:49:28;;;;;;;12.07;8.82;;;24.60;99.90;;;;;;5053614;28;19905;-68
2022/09/05 07:51:57;;;;;;;9.68;8.05;;;24.50;99.90;;;;;;5054981;28;20041;-68
2022/09/05 07:54:27;;;;;;;10.82;8.45;;;24.50;99.90;;;;;;5053956;28;20151;-69
2022/09/05 07:57:02;;;;;;;9.38;7.53;;;24.80;99.90;;;;;;5052667;28;20036;-68
2022/09/05 07:59:32;;;;;;;14.02;8.07;;;25.10;99.90;;;;;;5054514;28;20021;-68
2022/09/05 08:01:59;;;;;;;10.52;7.43;;;25.30;99.10;;;;;;5054534;28;20064;-67
2022/09/05 08:04:37;;;;;;;8.82;7.03;;;25.40;99.10;;;;;;5052827;28;20488;-69
2022/09/05 08:07:14;;;;;;;9.48;7.65;;;25.80;98.80;;;;;;5054552;28;20055;-67
2022/09/05 08:09:48;;;;;;;12.93;7.72;;;26.00;97.40;;;;;;5054445;28;20029;-68
2022/09/05 08:12:27;;;;;;;7.32;6.20;;;26.00;96.90;;;;;;5054648;28;20029;-66
2022/09/05 08:15:06;;;;;;;9.05;6.68;;;25.50;96.50;;;;;;5054761;28;20044;-67
2022/09/05 08:17:32;;;;;;;;;;;24.70;97.30;;;;;;5054756;28;20112;-66
2022/09/05 08:20:14;;;;;;;6.63;4.80;;;24.60;98.00;;;;;;5054384;28;19955;-68
2022/09/05 08:23:02;;;;;;;8.30;6.32;;;25.00;97.30;;;;;;5056067;28;20057;-66
2022/09/05 08:25:34;;;;;;;7.63;5.22;;;24.90;97.00;;;;;;5059675;28;20029;-68
2022/09/05 08:28:13;;;;;;;8.88;6.03;;;25.10;97.30;;;;;;5059322;28;20465;-68
2022/09/05 08:30:43;;;;;;;;;;;25.20;97.20;;;;;;5060674;28;20430;-68
2022/09/05 08:33:23;;;;;;;12.90;6.55;;;25.60;96.80;;;;;;5056960;28;19919;-68
2022/09/05 08:36:00;;;;;;;7.95;5.57;;;26.20;95.90;;;;;;5052723;28;20108;-68
2022/09/05 08:38:27;;;;;;;6.20;4.60;;;26.70;94.00;;;;;;5052987;28;20111;-68
2022/09/05 08:41:11;;;;;;;10.63;5.85;;;27.10;92.70;;;;;;5053875;28;20029;-68
2022/09/05 08:44:00;;;;;;;10.63;4.80;;;26.70;91.70;;;;;;5053750;28;20029;-68
2022/09/05 08:46:49;;;;;;;9.55;6.82;;;26.90;91.80;;;;;;5052680;28;20032;-69
2022/09/05 08:49:30;;;;;;;8.93;5.63;;;27.60;90.90;;;;;;5052798;28;20476;-68
2022/09/05 08:52:22;;;;;;;7.07;5.78;;;27.80;89.60;;;;;;5052741;28;20028;-68
2022/09/05 08:55:00;;;;;;;5.95;5.35;;;28.50;87.20;;;;;;5053737;28;20025;-69
2022/09/05 08:57:44;;;;;;;7.03;5.78;;;28.50;84.40;;;;;;5052398;28;20036;-68
2022/09/05 09:00:14;;;;;;;10.32;6.15;;;28.30;84.20;;;;;;5053283;28;20536;-69
2022/09/05 09:03:01;;;;;;;12.70;5.95;;;28.10;83.50;;;;;;5053854;28;20051;-68
2022/09/05 09:05:53;;;;;;;9.07;6.43;;;27.70;84.70;;;;;;5052234;28;20023;-68
2022/09/05 09:08:28;;;;;;;9.68;6.43;;;27.70;85.20;;;;;;5053760;28;20021;-66
2022/09/05 09:11:42;;;;;;;9.15;6.63;;;27.40;85.70;;;;;;5053184;28;20047;-68
2022/09/05 09:14:40;;;;;;;8.57;6.55;;;26.90;87.00;;;;;;4994945;28;20102;-68
2022/09/05 09:17:17;;;;;;;7.85;7.05;;;26.90;87.50;;;;;;5037266;28;20041;-68
2022/09/05 09:20:08;;;;;;;11.10;6.40;;;27.10;86.20;;;;;;5053239;28;20453;-68
2022/09/05 09:22:47;;;;;;;8.98;7.80;;;27.20;86.50;;;;;;5053553;28;20106;-68
2022/09/05 09:25:17;;;;;;;10.80;8.48;;;26.70;86.00;;;;;;5053752;28;20397;-68
2022/09/05 09:28:24;;;;;;;12.32;8.20;;;25.50;90.20;;;;;;5053918;28;20522;-66
2022/09/05 09:31:05;;;;;;;8.95;7.00;;;25.80;91.00;;;;;;5047771;28;20404;-68
2022/09/05 09:33:40;;;;;;;14.68;7.68;;;27.00;89.60;;;;;;5053486;28;20086;-68
2022/09/05 09:36:26;;;;;;;10.73;8.13;;;27.70;85.40;;;;;;5053448;28;20028;-68
2022/09/05 09:38:57;;;;;;;11.73;8.30;;;27.40;85.80;;;;;;5052881;28;20397;-68
2022/09/05 09:41:48;;;;;;;10.57;7.78;;;26.80;86.00;;;;;;5051965;28;20058;-68
2022/09/05 09:44:51;;;;;;;8.45;6.57;;;27.00;86.70;;;;;;5053139;28;20029;-68
2022/09/05 09:47:57;;;;;;;7.30;6.43;;;27.30;86.10;;;;;;5054470;28;20531;-68
2022/09/05 09:50:45;;;;;;;8.52;5.72;;;28.00;84.50;;;;;;5057034;28;20025;-68
2022/09/05 09:53:24;;;;;;;13.73;6.47;;;28.00;82.70;;;;;;5055618;28;20043;-68
2022/09/05 09:56:08;;;;;;;8.80;5.22;;;27.70;82.60;;;;;;5056953;28;20032;-68
2022/09/05 09:58:56;;;;;;;5.65;5.10;;;27.90;83.10;;;;;;5056906;28;20071;-69
2022/09/05 10:01:27;;;;;;;8.55;5.32;;;27.90;81.50;;;;;;5056762;28;20079;-75
2022/09/05 10:04:01;;;;;;;8.38;4.13;;;27.00;83.40;;;;;;5056398;28;20560;-75
2022/09/05 10:06:57;;;;;;;6.47;4.85;;;27.10;84.50;;;;;;5055530;28;20025;-75
2022/09/05 10:09:37;;;;;;;6.35;4.72;;;27.40;83.40;;;;;;5056933;28;20544;-75
2022/09/05 10:12:29;;;;;;;5.28;4.10;;;27.40;83.60;;;;;;5055257;28;20036;-75
2022/09/05 10:15:17;;;;;;;7.93;4.50;;;27.50;82.90;;;;;;5024601;28;20386;-76
2022/09/05 10:18:00;;;;;;;8.07;3.75;;;28.70;78.80;;;;;;5056635;28;20029;-75
2022/09/05 10:21:13;;;;;;;7.88;3.80;;;29.00;78.00;;;;;;5056471;28;20032;-75
2022/09/05 10:24:03;;;;;;;5.30;4.00;;;28.30;76.90;;;;;;5056513;28;20436;-75
2022/09/05 10:27:07;;;;;;;4.18;3.88;;;27.80;78.40;;;;;;5057001;28;20044;-75
2022/09/05 10:30:07;;;;;;;5.75;3.92;;;27.60;80.10;;;;;;5055043;28;20033;-75
2022/09/05 10:32:52;;;;;;;5.95;4.00;;;27.10;81.20;;;;;;5033936;28;20485;-75
2022/09/05 10:35:23;;;;;;;5.68;4.38;;;26.90;82.00;;;;;;5054893;28;20033;-75
2022/09/05 10:38:22;;;;;;;5.10;4.60;;;27.60;80.70;;;;;;5056420;28;20032;-75
2022/09/05 10:40:52;;;;;;;4.05;3.53;;;27.10;80.60;;;;;;5048616;28;20072;-75
2022/09/05 10:43:27;;;;;;;4.40;4.10;;;26.80;81.90;;;;;;5056073;28;20040;-74
2022/09/05 10:45:56;;;;;;;4.97;4.53;;;26.60;82.70;;;;;;5054737;28;20025;-75
2022/09/05 10:48:40;;;;;;;4.97;4.47;;;26.30;83.40;;;;;;5055712;28;20039;-72
2022/09/05 10:51:17;;;;;;;4.43;4.05;;;26.10;83.70;;;;;;5054575;28;20040;-75
2022/09/05 10:54:20;;;;;;;5.75;4.45;;;25.90;85.20;;;;;;5055512;28;20045;-72
2022/09/05 10:57:24;;;;;;;7.20;3.97;;;26.90;84.00;;;;;;5056038;28;20021;-76
2022/09/05 11:00:06;;;;;;;4.70;4.25;;;28.00;80.00;;;;;;5054497;28;20021;-74
2022/09/05 11:02:41;;;;;;;8.00;6.03;;;26.50;82.80;;;;;;5055242;28;20052;-74
2022/09/05 11:05:26;;;;;;;4.53;4.13;;;26.10;85.10;;;;;;5055537;28;20048;-76
2022/09/05 11:08:08;;;;;;;5.20;3.97;;;25.80;85.60;;;;;;5055634;28;20021;-73
2022/09/05 11:10:47;;;;;;;5.35;3.50;;;26.10;84.80;;;;;;5058774;28;20013;-72
2022/09/05 11:13:42;;;;;;;3.85;3.47;;;26.50;84.20;;;;;;5070228;28;20123;-73
2022/09/05 11:16:26;;;;;;;6.70;3.40;;;27.10;82.00;;;;;;5051195;28;20040;-73
2022/09/05 11:19:06;;;;;;;6.50;3.30;;;26.80;83.00;;;;;;5055565;28;20469;-75
2022/09/05 11:22:00;;;;;;;5.15;3.42;;;26.80;83.80;;;;;;5055311;28;20472;-75
2022/09/05 11:24:44;;;;;;;3.50;3.20;;;27.10;82.20;;;;;;5055289;28;20124;-72
2022/09/05 11:27:31;;;;;;;6.20;3.13;;;26.70;82.00;;;;;;5055225;28;20027;-73
2022/09/05 11:30:12;;;;;;;3.58;3.28;;;26.90;81.10;;;;;;5053820;28;20036;-72
2022/09/05 11:32:45;;;;;;;3.75;3.45;;;26.70;82.40;;;;;;5055031;28;20033;-72
2022/09/05 11:35:24;;;;;;;4.65;3.00;;;26.60;83.30;;;;;;5071634;28;20043;-72
2022/09/05 11:37:59;;;;;;;3.45;2.72;;;27.60;81.30;;;;;;5075022;28;20031;-75
2022/09/05 11:40:31;;;;;;;3.20;2.90;;;29.00;77.40;;;;;;5074581;28;20027;-75
2022/09/05 11:43:17;;;;;;;5.03;2.70;;;29.90;71.80;;;;;;5074924;28;20558;-76
2022/09/05 11:46:07;;;;;;;4.10;3.13;;;28.60;74.60;;;;;;5073602;28;20468;-75
2022/09/05 11:49:00;;;;;;;5.95;2.80;;;27.80;76.00;;;;;;5074627;28;20476;-76
2022/09/05 11:51:38;;;;;;;4.03;3.20;;;27.60;77.40;;;;;;5073309;28;20029;-75
2022/09/05 11:54:06;;;;;;;5.63;3.30;;;27.80;76.40;;;;;;5073404;28;20028;-74
2022/09/05 11:57:03;;;;;;;2.83;2.63;;;28.20;75.30;;;;;;5073617;28;20028;-77
2022/09/05 12:00:05;;;;;;;3.70;2.92;;;28.60;75.20;;;;;;5073433;28;20033;-75
2022/09/05 12:02:49;;;;;;;3.83;3.40;;;27.80;76.20;;;;;;5073076;28;20480;-75
2022/09/05 12:05:36;;;;;;;4.55;3.05;;;28.20;75.90;;;;;;5074402;28;20025;-77
2022/09/05 12:08:16;;;;;;;3.22;3.00;;;28.70;74.30;;;;;;5073265;28;20111;-76
2022/09/05 12:11:16;;;;;;;2.95;2.75;;;28.00;75.60;;;;;;5073583;28;20029;-75
2022/09/05 12:14:28;;;;;;;3.08;2.63;;;28.00;75.80;;;;;;5074383;28;20031;-76
2022/09/05 12:17:07;;;;;;;3.70;2.53;;;29.50;72.90;;;;;;5059570;28;20123;-75
2022/09/05 12:19:42;;;;;;;5.65;2.80;;;29.60;71.50;;;;;;5074488;28;20024;-75
2022/09/05 12:22:19;;;;;;;4.32;2.70;;;29.40;70.60;;;;;;5074339;28;20025;-74
2022/09/05 12:24:53;;;;;;;4.13;3.77;;;30.10;71.00;;;;;;5074138;28;20028;-74
2022/09/05 12:27:23;;;;;;;5.82;2.55;;;29.90;69.00;;;;;;5074318;28;20028;-74
2022/09/05 12:29:54;;;;;;;4.15;2.47;;;30.10;69.10;;;;;;5073736;28;20388;-74
2022/09/05 12:32:24;;;;;;;3.47;2.22;;;29.80;67.50;;;;;;5074153;28;20032;-74
2022/09/05 12:34:55;;;;;;;4.32;2.35;;;30.30;68.40;;;;;;5074009;28;20155;-62
2022/09/05 12:37:21;;;;;;;5.30;2.30;;;30.40;66.70;;;;;;5073878;28;20471;-62
2022/09/05 12:40:08;;;;;;;3.22;2.20;;;30.10;66.50;;;;;;5073876;28;20024;-62
2022/09/05 12:42:39;;;;;;;2.60;2.40;;;29.70;68.10;;;;;;5073982;28;20036;-61
2022/09/05 12:45:31;;;;;;;2.20;2.10;;;29.60;68.40;;;;;;5073491;28;20020;-62
2022/09/05 12:48:00;;;;;;;2.60;2.40;;;29.00;67.90;;;;;;5073852;28;20035;-63
2022/09/05 12:50:33;;;;;;;2.60;2.00;;;28.60;68.40;;;;;;5072493;28;20052;-63
2022/09/05 12:53:07;;;;;;;2.30;2.20;;;29.00;67.70;;;;;;5073424;28;20447;-62
2022/09/05 12:55:41;;;;;;;4.20;2.08;;;28.80;67.70;;;;;;5073975;28;20036;-62
2022/09/05 12:58:27;;;;;;;6.78;2.13;;;28.70;68.00;;;;;;5072601;28;20374;-62
2022/09/05 13:01:05;;;;;;;8.43;1.90;;;29.30;68.30;;;;;;5073828;28;20028;-61
2022/09/05 13:03:35;;;;;;;4.13;1.52;;;30.60;66.30;;;;;;5074121;28;20123;-60
2022/09/05 13:06:11;;;;;;;9.50;2.10;;;31.20;63.50;;;;;;5073821;28;20033;-61
2022/09/05 13:08:46;;;;;;;4.82;2.22;;;30.60;63.70;;;;;;5073697;28;20050;-62
2022/09/05 13:11:16;;;;;;;4.00;2.20;;;30.00;64.70;;;;;;5073717;28;20024;-63
2022/09/05 13:13:52;;;;;;;5.18;2.20;;;29.80;65.70;;;;;;5073985;28;20040;-63
2022/09/05 13:16:22;;;;;;;2.05;1.77;;;29.80;65.10;;;;;;5072310;28;20055;-63
2022/09/05 13:18:52;;;;;;;5.20;1.75;;;29.20;65.70;;;;;;5073922;28;20028;-60
2022/09/05 13:21:24;;;;;;;2.42;1.60;;;29.80;64.10;;;;;;5074704;28;20028;-60
2022/09/05 13:24:11;;;;;;;2.20;1.38;;;31.00;63.90;;;;;;5077706;28;20024;-62
2022/09/05 13:26:49;;;;;;;3.13;1.80;;;32.00;61.20;;;;;;5077351;28;20052;-63
2022/09/05 13:29:20;;;;;;;3.47;1.90;;;31.70;60.40;;;;;;5078851;28;20064;-61
2022/09/05 13:31:51;;;;;;;2.58;2.30;;;32.60;60.30;;;;;;5078053;28;20040;-61
2022/09/05 13:34:30;;;;;;;2.03;1.75;;;32.90;58.00;;;;;;5078698;28;20035;-61
2022/09/05 13:37:02;;;;;;;3.90;2.08;;;33.40;58.30;;;;;;5077825;28;20363;-60
2022/09/05 13:39:44;;;;;;;3.13;2.10;;;33.60;56.00;;;;;;5077670;28;20024;-60
2022/09/05 13:42:17;;;;;;;2.42;2.17;;;32.10;57.40;;;;;;5077374;28;20033;-60
2022/09/05 13:44:45;;;;;;;2.40;2.13;;;30.60;59.60;;;;;;5077256;28;20033;-60
2022/09/05 13:47:14;;;;;;;3.10;2.03;;;30.20;61.40;;;;;;5076105;28;20474;-61
2022/09/05 13:49:53;;;;;;;3.83;1.85;;;31.30;60.30;;;;;;5077247;28;20378;-63
2022/09/05 13:52:38;;;;;;;6.28;2.10;;;32.00;58.80;;;;;;5077147;28;20041;-60
2022/09/05 13:55:27;;;;;;;6.35;2.33;;;31.20;58.50;;;;;;5077253;28;20114;-60
2022/09/05 13:58:24;;;;;;;8.65;2.22;;;30.90;60.40;;;;;;5076207;28;20418;-60
2022/09/05 14:00:55;;;;;;;4.22;2.40;;;30.70;59.80;;;;;;5077035;28;20035;-60